M I D A S
Marine Information and Data Acquisition System
Tripno 1825 of the Zeeleeuw from 2009-12-14 07:26:12 to 2009-12-14 14:51:29
Back to CruiseResearch ActivitiesStationsMapUnderway DataData graphs

EquipmentUnitsComment
TimeDGPSUTC
LatitudeDGPSDM.mWGS84
LongitudeDGPSDM.mWGS84
HeadingGyrodeg 
SOGDGPSknotsSpeed over ground
COGDGPSdegCourse over ground
DepthEcho soundermeters200 kHz
Missing or incorrect values are displayed as -999
Navigation data collected by the RV Zeeleeuw from 2009-12-14 07:28:33 to 2009-12-14 15:00:18
Time Latitude Longitude Heading SOG COG Depth
2009-12-14 07:29:42 51°13.675 2°55.897 106.4 3.5 288 -999
2009-12-14 07:30:42 51°13.695 2°55.805 101.5 3.5 285 -999
2009-12-14 07:31:41 51°13.699 2°55.743 78 1 276 4.7
2009-12-14 07:32:41 51°13.713 2°55.746 27.2 1.5 15 13.1
2009-12-14 07:33:42 51°13.7 2°55.74 2.4 0.6 205 -999
2009-12-14 07:34:41 51°13.752 2°55.697 332.5 6.2 332 12.1
2009-12-14 07:35:38 51°13.853 2°55.616 334.5 8 334 11.7
2009-12-14 07:36:39 51°13.981 2°55.517 334.2 8.8 333 11.6
2009-12-14 07:37:39 51°14.118 2°55.41 334.1 9.3 332 11
2009-12-14 07:38:38 51°14.246 2°55.268 318.9 9.8 317 10.9
2009-12-14 07:39:39 51°14.355 2°55.051 306.8 10.7 306 10.7
2009-12-14 07:40:38 51°14.479 2°54.848 323.1 11.1 324 10.9
2009-12-14 07:41:38 51°14.631 2°54.677 327.8 11.3 324 10.4
2009-12-14 07:42:39 51°14.79 2°54.514 333.2 11.2 330 10.3
2009-12-14 07:43:39 51°14.952 2°54.37 334.7 11 330 9.1
2009-12-14 07:44:39 51°15.109 2°54.223 335.7 11 330 9.6
2009-12-14 07:45:38 51°15.266 2°54.082 334.8 11 330 11
2009-12-14 07:46:39 51°15.428 2°53.936 335.3 11 331 11.4
2009-12-14 07:47:39 51°15.588 2°53.791 335.3 11 331 11.8
2009-12-14 07:48:39 51°15.748 2°53.649 335.2 11.1 331 12
2009-12-14 07:49:38 51°15.906 2°53.511 334.9 11 331 12.1
2009-12-14 07:50:38 51°16.066 2°53.367 335.2 11.1 329 12.3
2009-12-14 07:51:38 51°16.226 2°53.224 335.2 11 331 12.5
2009-12-14 07:52:38 51°16.387 2°53.085 335.4 11 331 12.6
2009-12-14 07:53:39 51°16.551 2°52.946 335.3 11 332 12.3
2009-12-14 07:54:38 51°16.707 2°52.81 335.4 10.8 332 11.5
2009-12-14 07:55:39 51°16.866 2°52.673 335.5 10.7 332 10.2
2009-12-14 07:56:38 51°17.02 2°52.542 335.5 10.6 333 10.3
2009-12-14 07:57:39 51°17.179 2°52.404 335.2 10.6 332 10.7
2009-12-14 07:58:38 51°17.332 2°52.27 334.8 10.7 331 11.5
2009-12-14 07:59:39 51°17.492 2°52.132 335.1 10.7 332 11.8
2009-12-14 08:00:38 51°17.654 2°52.045 352.3 10.4 350 11.9
2009-12-14 08:01:38 51°17.827 2°52.017 357.9 10.4 354 11.5
2009-12-14 08:02:39 51°18.004 2°51.99 356.5 10.5 353 11.2
2009-12-14 08:03:38 51°18.175 2°51.961 356 10.6 353 11.8
2009-12-14 08:04:39 51°18.353 2°51.927 356.3 10.6 353 12.2
2009-12-14 08:05:38 51°18.526 2°51.89 355.1 10.7 351 13
2009-12-14 08:06:38 51°18.702 2°51.847 355.5 10.6 351 14
2009-12-14 08:07:38 51°18.876 2°51.807 355 10.5 353 14.9
2009-12-14 08:08:39 51°19.053 2°51.766 354.9 10.6 351 15.9
2009-12-14 08:09:38 51°19.224 2°51.727 356.5 10.6 352 16.4
2009-12-14 08:10:38 51°19.398 2°51.689 355.1 10.6 352 16.6
2009-12-14 08:11:39 51°19.575 2°51.644 354.9 10.6 352 16.4
2009-12-14 08:12:38 51°19.746 2°51.601 355.1 10.5 353 16.1
2009-12-14 08:13:39 51°19.925 2°51.566 357 10.8 353 15.4
2009-12-14 08:14:38 51°20.099 2°51.53 355.8 10.7 352 14.1
2009-12-14 08:15:39 51°20.277 2°51.491 354.5 10.7 353 14.2
2009-12-14 08:16:38 51°20.451 2°51.451 354.6 10.7 351 14.9
2009-12-14 08:17:39 51°20.618 2°51.345 335.5 10.8 331 16.9
2009-12-14 08:18:38 51°20.774 2°51.202 335.1 11.1 330 18.7
2009-12-14 08:19:38 51°20.934 2°51.055 334 11.1 329 21.3
2009-12-14 08:20:39 51°21.1 2°50.914 340.5 11 336 23.6
2009-12-14 08:21:38 51°21.265 2°50.802 342 11 338 24.7
2009-12-14 08:22:38 51°21.434 2°50.687 343.1 10.9 343 24.6
2009-12-14 08:23:38 51°21.61 2°50.626 356.7 10.8 356 24.8
2009-12-14 08:24:38 51°21.79 2°50.618 1.4 10.8 359 24.6
2009-12-14 08:25:38 51°21.969 2°50.617 2.8 10.8 -999 23.9
2009-12-14 08:26:39 51°22.152 2°50.614 1 10.8 -999 24.4
2009-12-14 08:27:38 51°22.33 2°50.61 0.8 10.9 356 24
2009-12-14 08:28:38 51°22.51 2°50.604 0.2 10.9 359 24
2009-12-14 08:29:38 51°22.692 2°50.594 359.4 11 357 23.6
2009-12-14 08:30:38 51°22.874 2°50.585 359.6 10.9 358 17.7
2009-12-14 08:31:39 51°23.056 2°50.581 0.7 10.7 -999 15.3
2009-12-14 08:32:39 51°23.233 2°50.572 0.2 10.7 357 14.4
2009-12-14 08:33:39 51°23.41 2°50.563 359.9 10.6 358 18.2
2009-12-14 08:34:38 51°23.585 2°50.553 0.1 10.7 358 19.1
2009-12-14 08:35:38 51°23.762 2°50.544 2 10.7 358 21.9
2009-12-14 08:36:38 51°23.941 2°50.537 0.1 10.7 357 23.2
2009-12-14 08:37:38 51°24.119 2°50.523 359.6 10.7 356 23.4
2009-12-14 08:38:38 51°24.296 2°50.511 1.5 10.7 -999 23.2
2009-12-14 08:39:38 51°24.475 2°50.501 1.1 10.7 358 23.9
2009-12-14 08:40:39 51°24.657 2°50.49 0.9 10.9 358 24.1
2009-12-14 08:41:38 51°24.835 2°50.486 1 10.9 359 24.2
2009-12-14 08:42:38 51°25.015 2°50.479 359.4 10.8 358 24.1
2009-12-14 08:43:38 51°25.194 2°50.467 359.3 10.8 357 24.4
2009-12-14 08:44:38 51°25.375 2°50.455 359.8 10.9 358 25
2009-12-14 08:45:39 51°25.558 2°50.447 -999 10.9 359 24.8
2009-12-14 08:46:38 51°25.737 2°50.442 0.1 10.8 -999 24.3
2009-12-14 08:47:38 51°25.918 2°50.439 0.8 10.9 -999 24.6
2009-12-14 08:48:38 51°26.099 2°50.435 -999 10.8 -999 24.7
2009-12-14 08:49:39 51°26.283 2°50.432 1.5 10.9 1 24.7
2009-12-14 08:50:39 51°26.464 2°50.43 359.9 10.9 359 25
2009-12-14 08:51:39 51°26.645 2°50.424 0.1 10.9 -999 20.6
2009-12-14 08:52:38 51°26.824 2°50.417 359.9 10.8 358 21.4
2009-12-14 08:53:39 51°27.007 2°50.412 0.1 10.8 358 19.9
2009-12-14 08:54:37 51°27.179 2°50.402 0.1 10.7 358 21.7
2009-12-14 08:55:38 51°27.36 2°50.393 0.6 10.7 359 23.8
2009-12-14 08:56:38 51°27.539 2°50.387 1 10.7 1 25.5
2009-12-14 08:57:38 51°27.719 2°50.381 0.5 10.8 359 28.2
2009-12-14 08:58:38 51°27.901 2°50.373 0.1 10.9 359 29.9
2009-12-14 08:59:38 51°28.083 2°50.374 1.7 11 1 28.7
2009-12-14 09:00:39 51°28.27 2°50.373 359.2 11 -999 28.7
2009-12-14 09:01:38 51°28.451 2°50.369 359.6 11.1 359 28.6
2009-12-14 09:02:39 51°28.637 2°50.37 0.7 10.9 -999 28.2
2009-12-14 09:03:38 51°28.818 2°50.373 0.8 11 2 28
2009-12-14 09:04:38 51°29.001 2°50.379 359.9 11.1 2 28.3
2009-12-14 09:05:38 51°29.184 2°50.384 0.3 11 1 31.5
2009-12-14 09:06:38 51°29.366 2°50.399 10.2 10.8 15 31.3
2009-12-14 09:07:38 51°29.516 2°50.551 41.9 11 45 32.7
2009-12-14 09:08:38 51°29.606 2°50.81 65.5 11.3 70 31.9
2009-12-14 09:09:39 51°29.672 2°51.101 68.9 11.5 71 31.9
2009-12-14 09:10:38 51°29.734 2°51.385 68.5 11.5 71 32.5
2009-12-14 09:11:38 51°29.802 2°51.671 66.5 11.5 68 32.7
2009-12-14 09:12:38 51°29.876 2°51.952 64.7 11.4 66 32.8
2009-12-14 09:13:39 51°29.956 2°52.233 64.1 11.5 66 32
2009-12-14 09:14:38 51°30.025 2°52.514 67.7 11.5 69 30.8
2009-12-14 09:15:38 51°30.094 2°52.8 67.6 11.5 69 31.1
2009-12-14 09:16:39 51°30.166 2°53.09 65.9 11.5 67 32.2
2009-12-14 09:17:39 51°30.237 2°53.375 67.2 11.5 68 32.3
2009-12-14 09:18:39 51°30.31 2°53.661 65.7 11.5 68 34.2
2009-12-14 09:19:38 51°30.384 2°53.94 65.4 11.6 69 35.3
2009-12-14 09:20:38 51°30.458 2°54.226 66.9 11.7 68 35.9
2009-12-14 09:21:38 51°30.532 2°54.513 66.1 11.6 68 35.2
2009-12-14 09:22:38 51°30.604 2°54.801 66.6 11.7 68 36.4
2009-12-14 09:23:38 51°30.678 2°55.089 64.9 11.6 67 37.9
2009-12-14 09:24:38 51°30.754 2°55.374 65.5 11.6 67 37.9
2009-12-14 09:25:38 51°30.827 2°55.661 67 11.7 68 39
2009-12-14 09:26:38 51°30.9 2°55.946 65.1 11.5 66 36.9
2009-12-14 09:27:38 51°30.974 2°56.233 65.9 11.7 66 34.3
2009-12-14 09:28:38 51°31.049 2°56.52 65.4 11.7 67 34.5
2009-12-14 09:29:38 51°31.126 2°56.808 65.9 11.7 67 34.1
2009-12-14 09:30:38 51°31.201 2°57.096 66.1 11.7 67 32.5
2009-12-14 09:31:38 51°31.274 2°57.387 65.8 11.7 68 33.7
2009-12-14 09:32:38 51°31.375 2°57.648 47.4 11.5 46 34.8
2009-12-14 09:33:38 51°31.528 2°57.831 32.2 11.6 33 34.7
2009-12-14 09:34:37 51°31.682 2°58.005 35.7 11.6 37 36.2
2009-12-14 09:35:38 51°31.833 2°58.206 38.7 11.6 41 37.8
2009-12-14 09:36:38 51°31.979 2°58.409 40.9 11.6 43 38.2
2009-12-14 09:37:38 51°32.123 2°58.616 40.1 11.6 41 37.5
2009-12-14 09:38:38 51°32.268 2°58.822 39.7 11.6 42 36
2009-12-14 09:39:37 51°32.41 2°59.024 39.6 11.6 41 37.1
2009-12-14 09:40:38 51°32.558 2°59.234 40.2 11.5 41 35.9
2009-12-14 09:41:38 51°32.703 2°59.434 34.2 11.1 30 34.8
2009-12-14 09:42:38 51°32.876 2°59.455 340.6 10.4 338 33.8
2009-12-14 09:43:39 51°32.981 2°59.238 294.8 10.4 296 14.3
2009-12-14 09:44:39 51°33.044 2°58.982 289.1 10.4 293 15.1
2009-12-14 09:45:39 51°33.118 2°58.73 295.8 10.6 299 18.9
2009-12-14 09:46:38 51°33.208 2°58.494 301.1 10.6 302 19.8
2009-12-14 09:47:38 51°33.315 2°58.27 306.6 10.6 307 20.9
2009-12-14 09:48:38 51°33.424 2°58.047 305.4 10.7 307 23.8
2009-12-14 09:49:38 51°33.535 2°57.821 305.8 10.7 307 25.5
2009-12-14 09:50:38 51°33.647 2°57.593 306.8 10.9 309 27.2
2009-12-14 09:51:38 51°33.759 2°57.364 305.9 10.9 308 27.4
2009-12-14 09:52:38 51°33.869 2°57.133 303.9 10.9 308 30.5
2009-12-14 09:53:38 51°33.978 2°56.902 305 10.9 307 31
2009-12-14 09:54:38 51°34.09 2°56.674 305.3 10.9 308 31.6
2009-12-14 09:55:39 51°34.204 2°56.441 304.5 10.9 308 33.2
2009-12-14 09:56:38 51°34.304 2°56.207 296.1 10.8 298 33.1
2009-12-14 09:57:38 51°34.352 2°55.936 274.4 10.5 275 33.1
2009-12-14 09:58:38 51°34.321 2°55.665 249.8 10.5 253 33.7
2009-12-14 09:59:38 51°34.251 2°55.409 242.5 10.4 241 33
2009-12-14 10:00:38 51°34.161 2°55.168 236.1 10.4 233 32.6
2009-12-14 10:01:38 51°34.054 2°54.947 230.5 10.5 226 31.7
2009-12-14 10:02:38 51°33.939 2°54.737 228.8 10.5 229 30.1
2009-12-14 10:03:38 51°33.824 2°54.527 229 10.5 226 29.7
2009-12-14 10:04:38 51°33.709 2°54.314 229.9 10.5 229 29.7
2009-12-14 10:05:38 51°33.595 2°54.103 230.8 10.4 228 31
2009-12-14 10:06:38 51°33.483 2°53.89 230.8 10.4 231 29.8
2009-12-14 10:07:39 51°33.375 2°53.666 234.4 10.3 235 30.3
2009-12-14 10:08:38 51°33.278 2°53.445 235.9 10.4 238 29.7
2009-12-14 10:09:38 51°33.184 2°53.214 237.4 10.4 237 29.7
2009-12-14 10:10:38 51°33.088 2°52.985 235.2 10.4 235 29.3
2009-12-14 10:11:38 51°32.991 2°52.757 234.6 10.3 234 31
2009-12-14 10:12:38 51°32.892 2°52.531 236 10.1 234 31.7
2009-12-14 10:13:38 51°32.795 2°52.306 235.5 10.3 233 30.7
2009-12-14 10:14:38 51°32.699 2°52.078 236 10.3 233 33.2
2009-12-14 10:15:38 51°32.601 2°51.853 233.8 10.3 235 33.5
2009-12-14 10:16:38 51°32.504 2°51.627 235 10.3 234 31.8
2009-12-14 10:17:38 51°32.409 2°51.397 236.9 10.1 235 31.9
2009-12-14 10:18:38 51°32.315 2°51.168 236 10.3 240 34.5
2009-12-14 10:19:38 51°32.22 2°50.939 235.8 10.3 237 33.1
2009-12-14 10:20:39 51°32.124 2°50.706 236.2 10.3 241 34.4
2009-12-14 10:21:38 51°32.029 2°50.486 234.5 10.4 237 31.4
2009-12-14 10:22:38 51°31.931 2°50.264 233.9 10.3 234 32.1
2009-12-14 10:23:38 51°31.833 2°50.04 234.5 10.2 235 29.7
2009-12-14 10:24:39 51°31.738 2°49.809 236 10.2 235 29.8
2009-12-14 10:25:38 51°31.647 2°49.587 236.2 10.1 238 30.8
2009-12-14 10:26:38 51°31.552 2°49.36 235.1 10.2 237 31.5
2009-12-14 10:27:38 51°31.452 2°49.146 230.3 10 232 29.2
2009-12-14 10:28:38 51°31.343 2°48.942 228 10 227 29.7
2009-12-14 10:29:38 51°31.234 2°48.737 229.6 10.1 231 31.6
2009-12-14 10:30:38 51°31.128 2°48.528 230.3 10 231 31.8
2009-12-14 10:31:38 51°31.023 2°48.321 231.1 9.9 234 30.8
2009-12-14 10:32:38 51°30.92 2°48.111 231 10 232 31.7
2009-12-14 10:33:38 51°30.817 2°47.901 230.6 10.1 231 31.6
2009-12-14 10:34:38 51°30.711 2°47.695 228.6 9.9 230 31.2
2009-12-14 10:35:38 51°30.606 2°47.488 230.3 10 233 31.4
2009-12-14 10:36:38 51°30.504 2°47.279 230.3 10 237 27.5
2009-12-14 10:37:38 51°30.506 2°47.038 292.5 9.9 304 30.2
2009-12-14 10:38:38 51°30.669 2°46.949 353.7 11.6 358 27
2009-12-14 10:39:38 51°30.867 2°46.971 0.9 12.1 6 29.4
2009-12-14 10:40:39 51°31.071 2°47.001 0.8 12.2 6 30.3
2009-12-14 10:41:38 51°31.27 2°47.034 1.2 12.3 5 31.4
2009-12-14 10:42:38 51°31.472 2°47.072 1.2 12.2 7 31.3
2009-12-14 10:43:39 51°31.678 2°47.113 2.3 12.3 7 32
2009-12-14 10:44:39 51°31.879 2°47.156 2 12.2 6 32.2
2009-12-14 10:45:38 51°32.078 2°47.196 1.9 12.2 7 32.9
2009-12-14 10:46:38 51°32.28 2°47.234 359.6 12.2 6 31.5
2009-12-14 10:47:38 51°32.483 2°47.262 -999 12.3 5 35
2009-12-14 10:48:38 51°32.686 2°47.291 -999 12.3 5 34.6
2009-12-14 10:49:38 51°32.889 2°47.32 356.5 12.1 2 35.6
2009-12-14 10:50:39 51°33.095 2°47.331 354.9 12.2 359 35.3
2009-12-14 10:51:39 51°33.297 2°47.337 355.5 12.1 1 34.7
2009-12-14 10:52:39 51°33.499 2°47.342 354.7 12.2 -999 33.7
2009-12-14 10:53:38 51°33.699 2°47.35 355.1 12.1 1 33.5
2009-12-14 10:54:39 51°33.904 2°47.352 353.8 12.2 -999 29.7
2009-12-14 10:55:37 51°34.099 2°47.354 354.3 12.2 -999 31.2
2009-12-14 10:56:39 51°34.309 2°47.361 355.3 12.2 359 34.3
2009-12-14 10:57:37 51°34.506 2°47.348 350.3 12.2 357 31.8
2009-12-14 10:58:38 51°34.711 2°47.323 348.4 12.1 354 32.8
2009-12-14 10:59:39 51°34.917 2°47.3 349.5 12.3 356 37.5
2009-12-14 11:00:39 51°35.119 2°47.276 349.7 12.1 354 38.8
2009-12-14 11:01:39 51°35.322 2°47.259 350.2 12.2 357 37.7
2009-12-14 11:02:37 51°35.516 2°47.27 9.3 12.1 16 38.1
2009-12-14 11:03:38 51°35.702 2°47.415 27.7 12.4 31 38.4
2009-12-14 11:04:37 51°35.876 2°47.586 28.8 12.6 32 38.4
2009-12-14 11:05:39 51°36.059 2°47.772 28.7 12.6 32 40.5
2009-12-14 11:06:37 51°36.23 2°47.941 29.4 12.4 32 39.4
2009-12-14 11:07:39 51°36.411 2°48.129 31.7 12.6 33 41.1
2009-12-14 11:08:38 51°36.584 2°48.31 30.5 12.6 33 41.8
2009-12-14 11:09:39 51°36.765 2°48.491 28.6 12.5 31 42
2009-12-14 11:10:39 51°36.943 2°48.668 29.8 12.6 31 39.1
2009-12-14 11:11:37 51°37.116 2°48.843 30.6 12.6 33 42.6
2009-12-14 11:12:39 51°37.299 2°49.032 31.1 12.7 32 36
2009-12-14 11:13:38 51°37.475 2°49.209 30.9 12.7 33 40.9
2009-12-14 11:14:39 51°37.657 2°49.393 30.5 12.8 31 38.7
2009-12-14 11:15:37 51°37.83 2°49.565 30.1 12.6 32 39.9
2009-12-14 11:16:39 51°38.016 2°49.748 30.4 12.6 32 38.1
2009-12-14 11:17:39 51°38.197 2°49.926 31 12.8 32 39.6
2009-12-14 11:18:39 51°38.378 2°50.104 30.1 12.7 31 40.5
2009-12-14 11:19:38 51°38.556 2°50.278 29.5 12.7 30 40.4
2009-12-14 11:20:38 51°38.736 2°50.454 30.6 12.7 32 40.4
2009-12-14 11:21:38 51°38.915 2°50.633 31 12.6 31 37.5
2009-12-14 11:22:38 51°39.096 2°50.808 30.7 12.8 31 31.7
2009-12-14 11:23:39 51°39.28 2°50.984 29 12.5 29 37.7
2009-12-14 11:24:38 51°39.458 2°51.15 29.7 12.6 30 36
2009-12-14 11:25:39 51°39.596 2°51.387 69.7 12 68 34.3
2009-12-14 11:26:37 51°39.597 2°51.687 103.2 11.6 101 33.6
2009-12-14 11:27:39 51°39.501 2°51.949 136.4 11 131 35.2
2009-12-14 11:28:39 51°39.37 2°52.153 143.5 10.9 138 34.7
2009-12-14 11:29:38 51°39.236 2°52.347 143.8 11 137 32.4
2009-12-14 11:30:38 51°39.099 2°52.542 145.3 11 141 35.6
2009-12-14 11:31:38 51°38.963 2°52.739 144.8 10.8 141 33.3
2009-12-14 11:32:38 51°38.827 2°52.937 144.4 11 138 33
2009-12-14 11:33:38 51°38.691 2°53.133 144.8 11.1 138 35.2
2009-12-14 11:34:39 51°38.555 2°53.336 142.5 10.9 137 34.5
2009-12-14 11:35:37 51°38.426 2°53.528 144.2 10.9 139 33.2
2009-12-14 11:36:38 51°38.287 2°53.728 144.5 11.1 138 32.5
2009-12-14 11:37:39 51°38.15 2°53.931 143.5 10.9 138 32.5
2009-12-14 11:38:37 51°38.017 2°54.121 145 11 141 30.9
2009-12-14 11:39:39 51°37.879 2°54.33 143.1 11.1 132 29.5
2009-12-14 11:40:37 51°37.749 2°54.522 144.1 11.1 136 27.4
2009-12-14 11:41:38 51°37.614 2°54.726 142.2 10.8 137 26.9
2009-12-14 11:42:37 51°37.479 2°54.913 151.1 10.3 150 24.2
2009-12-14 11:43:39 51°37.322 2°54.915 207.6 9.4 212 25.4
2009-12-14 11:44:37 51°37.207 2°54.755 229.5 9.8 229 24.3
2009-12-14 11:45:39 51°37.119 2°54.524 238 9.8 239 22.3
2009-12-14 11:46:38 51°37.041 2°54.295 237 10.1 239 21.8
2009-12-14 11:47:37 51°36.957 2°54.071 235.2 9.9 236 24.8
2009-12-14 11:48:39 51°36.868 2°53.838 236.4 9.9 238 22.2
2009-12-14 11:49:37 51°36.787 2°53.615 237.6 9.9 242 23.7
2009-12-14 11:50:37 51°36.702 2°53.388 235.6 10 235 25.2
2009-12-14 11:51:37 51°36.619 2°53.156 236.8 10 239 23.2
2009-12-14 11:52:38 51°36.533 2°52.924 235.7 10.1 243 21.9
2009-12-14 11:53:38 51°36.447 2°52.697 236.1 9.9 238 21.8
2009-12-14 11:54:38 51°36.364 2°52.467 237.4 10 239 26.1
2009-12-14 11:55:38 51°36.281 2°52.237 236.6 10 240 26.9
2009-12-14 11:56:38 51°36.196 2°52.006 236.3 10 237 26.3
2009-12-14 11:57:38 51°36.111 2°51.779 235.6 10 240 27.5
2009-12-14 11:58:38 51°36.023 2°51.556 228.8 9.5 224 27.6
2009-12-14 11:59:38 51°35.878 2°51.47 187.6 9.7 182 26.9
2009-12-14 12:00:38 51°35.712 2°51.488 176.9 10.2 173 24.1
2009-12-14 12:01:38 51°35.547 2°51.543 170.5 10.3 167 28.5
2009-12-14 12:02:38 51°35.381 2°51.604 176.2 10.3 170 30.8
2009-12-14 12:03:38 51°35.214 2°51.614 186.2 9.9 187 33.1
2009-12-14 12:04:38 51°35.048 2°51.58 191 10 188 31.9
2009-12-14 12:05:38 51°34.883 2°51.541 191.6 10.1 192 36.8
2009-12-14 12:06:38 51°34.72 2°51.501 191.7 10 189 39.5
2009-12-14 12:07:38 51°34.555 2°51.504 169 10 158 36.6
2009-12-14 12:08:38 51°34.435 2°51.712 131.3 11.3 123 38.9
2009-12-14 12:09:38 51°34.316 2°51.939 140.3 11.1 136 38.8
2009-12-14 12:10:38 51°34.186 2°52.149 141.1 11.2 134 37.6
2009-12-14 12:11:38 51°34.053 2°52.357 140.9 11.2 134 36.9
2009-12-14 12:12:38 51°33.921 2°52.563 140.4 11 135 34.3
2009-12-14 12:13:38 51°33.793 2°52.775 139.5 11 137 35.2
2009-12-14 12:14:38 51°33.664 2°52.985 141.4 11 135 33
2009-12-14 12:15:38 51°33.575 2°53.231 103 11.3 96 31.8
2009-12-14 12:16:38 51°33.676 2°53.486 41.7 12.3 40 33
2009-12-14 12:17:38 51°33.843 2°53.689 35.8 12.7 36 33.3
2009-12-14 12:18:38 51°34.014 2°53.887 34.9 12.7 36 33.7
2009-12-14 12:19:38 51°34.184 2°54.088 35.5 12.8 36 33.1
2009-12-14 12:20:38 51°34.355 2°54.289 35.4 12.7 36 32
2009-12-14 12:21:38 51°34.526 2°54.489 35.1 12.7 37 34
2009-12-14 12:22:38 51°34.697 2°54.686 34.4 12.7 36 34.3
2009-12-14 12:23:38 51°34.863 2°54.896 41.1 12.6 41 30
2009-12-14 12:24:38 51°34.99 2°55.161 59 12.5 59 33.4
2009-12-14 12:25:38 51°35.09 2°55.454 63.5 12.5 63 33.6
2009-12-14 12:26:38 51°35.19 2°55.75 62.6 12.6 61 33.3
2009-12-14 12:27:38 51°35.29 2°56.044 62 12.6 61 32.1
2009-12-14 12:28:38 51°35.395 2°56.337 60.9 12.6 58 36.5
2009-12-14 12:29:38 51°35.506 2°56.623 56.9 12.6 56 34.2
2009-12-14 12:30:38 51°35.634 2°56.891 51.8 12.7 52 36.9
2009-12-14 12:31:38 51°35.767 2°57.153 48.1 12.7 49 36.8
2009-12-14 12:32:38 51°35.907 2°57.407 47.9 12.7 48 34.3
2009-12-14 12:33:38 51°36.044 2°57.661 50.3 12.6 51 40
2009-12-14 12:34:38 51°36.18 2°57.919 50 12.7 49 34
2009-12-14 12:35:38 51°36.315 2°58.177 56.7 12.4 59 38.4
2009-12-14 12:36:38 51°36.345 2°58.477 109.8 10.7 112 38.7
2009-12-14 12:37:38 51°36.211 2°58.557 192.6 9.4 191 35.4
2009-12-14 12:38:38 51°36.047 2°58.519 188.6 10.1 190 34.8
2009-12-14 12:39:38 51°35.881 2°58.486 187.1 10 188 37.8
2009-12-14 12:40:38 51°35.715 2°58.451 188.4 10 185 36.7
2009-12-14 12:41:38 51°35.548 2°58.416 184.9 10.2 178 37.2
2009-12-14 12:42:38 51°35.379 2°58.419 178.9 10.2 176 33.1
2009-12-14 12:43:38 51°35.21 2°58.431 179.4 10.2 180 34.4
2009-12-14 12:44:38 51°35.041 2°58.44 180.1 10.2 178 32.7
2009-12-14 12:45:38 51°34.872 2°58.483 169.1 10.3 166 30
2009-12-14 12:46:38 51°34.706 2°58.549 169.2 10.4 164 28.8
2009-12-14 12:47:38 51°34.539 2°58.615 169.2 10.3 166 25.9
2009-12-14 12:48:38 51°34.374 2°58.694 165 10.4 161 25.4
2009-12-14 12:49:38 51°34.209 2°58.781 163.4 10.3 162 25.9
2009-12-14 12:50:38 51°34.045 2°58.866 164.8 10.6 162 24.8
2009-12-14 12:51:38 51°33.88 2°58.948 164.9 10.2 162 23.5
2009-12-14 12:52:38 51°33.717 2°59.028 165.5 10.3 163 20.4
2009-12-14 12:53:38 51°33.554 2°59.11 163.8 10.2 163 19.9
2009-12-14 12:54:38 51°33.392 2°59.19 165 10.2 161 15.7
2009-12-14 12:55:38 51°33.23 2°59.267 165.8 10.1 165 14.6
2009-12-14 12:56:38 51°33.07 2°59.343 164.5 10.2 162 15.3
2009-12-14 12:57:38 51°32.907 2°59.427 165.2 10.3 164 31.9
2009-12-14 12:58:38 51°32.742 2°59.52 165.3 10.4 163 34.3
2009-12-14 12:59:38 51°32.577 2°59.609 165.9 10.3 161 35.1
2009-12-14 13:00:38 51°32.412 2°59.676 177.1 10.2 173 36.2
2009-12-14 13:01:38 51°32.244 2°59.693 182.2 10.1 179 32.9
2009-12-14 13:02:38 51°32.08 2°59.685 189.1 9.8 186 31.3
2009-12-14 13:03:38 51°31.919 2°59.636 193.2 9.9 192 29.7
2009-12-14 13:04:38 51°31.757 2°59.594 192.1 10 187 28.9
2009-12-14 13:05:38 51°31.593 2°59.548 192.4 10.1 190 29.7
2009-12-14 13:06:38 51°31.427 2°59.504 190.5 10.2 188 28.9
2009-12-14 13:07:38 51°31.261 2°59.46 190.4 10.2 189 29
2009-12-14 13:08:38 51°31.094 2°59.403 194.4 10.3 195 29.1
2009-12-14 13:09:38 51°30.929 2°59.33 196.1 10.3 195 29.4
2009-12-14 13:10:38 51°30.767 2°59.257 196 10.3 197 29.3
2009-12-14 13:11:38 51°30.603 2°59.181 196.8 10.3 197 28.5
2009-12-14 13:12:38 51°30.44 2°59.099 198 10.2 199 27.5
2009-12-14 13:13:38 51°30.279 2°59.015 197.8 10.1 197 26.1
2009-12-14 13:14:38 51°30.119 2°58.933 197.6 10.3 197 27.2
2009-12-14 13:15:38 51°29.956 2°58.854 195.6 10.2 196 27.1
2009-12-14 13:16:38 51°29.794 2°58.777 196.5 10.2 195 27.2
2009-12-14 13:17:38 51°29.633 2°58.697 197 10.1 196 27.5
2009-12-14 13:18:38 51°29.473 2°58.615 197.5 10.1 198 28.2
2009-12-14 13:19:38 51°29.312 2°58.535 197.4 10.2 197 28.4
2009-12-14 13:20:38 51°29.149 2°58.452 197.8 10.3 197 28.7
2009-12-14 13:21:38 51°28.987 2°58.368 196.8 10.4 195 29.3
2009-12-14 13:22:38 51°28.824 2°58.289 196.6 10.4 199 30.3
2009-12-14 13:23:38 51°28.661 2°58.205 197.4 10.3 199 31.5
2009-12-14 13:24:38 51°28.497 2°58.12 198.6 10.4 197 32.3
2009-12-14 13:25:38 51°28.332 2°58.035 198.4 10.3 196 32
2009-12-14 13:26:38 51°28.168 2°57.952 196.8 10.4 198 31.3
2009-12-14 13:27:38 51°28.003 2°57.87 198 10.4 194 30.8
2009-12-14 13:28:38 51°27.839 2°57.782 197.3 10.5 197 28.8
2009-12-14 13:29:38 51°27.674 2°57.69 197.7 10.5 199 28.2
2009-12-14 13:30:38 51°27.51 2°57.606 196.8 10.5 196 27
2009-12-14 13:31:38 51°27.344 2°57.519 197.9 10.6 197 25.9
2009-12-14 13:32:38 51°27.179 2°57.427 196.7 10.6 198 24.4
2009-12-14 13:33:38 51°27.014 2°57.338 197.5 10.4 199 21.8
2009-12-14 13:34:38 51°26.85 2°57.248 196.6 10.5 199 20.3
2009-12-14 13:35:38 51°26.687 2°57.152 198.2 10.5 197 19.8
2009-12-14 13:36:38 51°26.524 2°57.055 198.6 10.4 201 19.2
2009-12-14 13:37:38 51°26.362 2°56.964 197.5 10.4 200 18.8
2009-12-14 13:38:38 51°26.2 2°56.872 196.5 10.3 199 17.7
2009-12-14 13:39:38 51°26.039 2°56.781 197.8 10.3 201 18.1
2009-12-14 13:40:38 51°25.876 2°56.69 197.3 10.4 198 18
2009-12-14 13:41:38 51°25.714 2°56.599 196.9 10.3 199 17.6
2009-12-14 13:42:38 51°25.551 2°56.508 197.1 10.5 203 19.9
2009-12-14 13:43:38 51°25.386 2°56.418 197.1 10.4 198 22.4
2009-12-14 13:44:38 51°25.221 2°56.331 195.3 10.5 198 24.6
2009-12-14 13:45:38 51°25.053 2°56.243 196.6 10.6 196 25.3
2009-12-14 13:46:38 51°24.885 2°56.155 196.1 10.6 198 25.5
2009-12-14 13:47:38 51°24.717 2°56.065 198 10.7 199 24.4
2009-12-14 13:48:38 51°24.551 2°55.967 198.3 10.7 201 23.6
2009-12-14 13:49:38 51°24.384 2°55.872 196.8 10.7 200 24.9
2009-12-14 13:50:38 51°24.216 2°55.785 197.4 10.6 198 23.7
2009-12-14 13:51:38 51°24.05 2°55.69 198.4 10.5 201 22.1
2009-12-14 13:52:38 51°23.883 2°55.6 196.1 10.6 198 19.4
2009-12-14 13:53:38 51°23.718 2°55.517 194.9 10.5 199 19.2
2009-12-14 13:54:38 51°23.55 2°55.434 195.2 10.5 196 17.8
2009-12-14 13:55:38 51°23.382 2°55.359 193.7 10.5 195 18.2
2009-12-14 13:56:38 51°23.214 2°55.282 193.9 10.6 199 20
2009-12-14 13:57:38 51°23.045 2°55.204 195.3 10.6 198 20
2009-12-14 13:58:38 51°22.873 2°55.123 196.1 10.8 197 20.3
2009-12-14 13:59:38 51°22.702 2°55.033 196.8 10.8 200 20.3
2009-12-14 14:00:38 51°22.531 2°54.939 197.5 10.9 198 19.7
2009-12-14 14:01:38 51°22.362 2°54.839 198.2 10.7 201 19.4
2009-12-14 14:02:38 51°22.195 2°54.74 197.5 10.8 201 19.4
2009-12-14 14:03:38 51°22.027 2°54.641 198.2 10.8 200 19.7
2009-12-14 14:04:38 51°21.858 2°54.546 197.8 10.6 200 18.4
2009-12-14 14:05:38 51°21.692 2°54.449 198.5 10.5 200 18.1
2009-12-14 14:06:38 51°21.528 2°54.353 197.8 10.6 201 17.9
2009-12-14 14:07:38 51°21.363 2°54.254 198.2 10.6 200 17.8
2009-12-14 14:08:38 51°21.197 2°54.156 196.3 10.7 199 17.7
2009-12-14 14:09:38 51°21.028 2°54.059 197 10.8 198 17.6
2009-12-14 14:10:38 51°20.86 2°53.958 195.8 10.9 200 17.5
2009-12-14 14:11:38 51°20.69 2°53.853 198.6 11 202 17.3
2009-12-14 14:12:38 51°20.518 2°53.749 198.2 11 201 17.1
2009-12-14 14:13:38 51°20.347 2°53.642 198 11.1 200 16.9
2009-12-14 14:14:38 51°20.175 2°53.54 197 11.1 200 16.6
2009-12-14 14:15:38 51°20.002 2°53.436 197.1 11.2 202 16.2
2009-12-14 14:16:38 51°19.829 2°53.332 197.8 11.2 201 15.6
2009-12-14 14:17:38 51°19.655 2°53.232 195.2 11.1 198 15.1
2009-12-14 14:18:38 51°19.481 2°53.131 196.5 11.2 200 14.5
2009-12-14 14:19:38 51°19.309 2°53.027 197.8 11.1 201 14
2009-12-14 14:20:38 51°19.137 2°52.923 197.3 11 201 13.3
2009-12-14 14:21:38 51°18.965 2°52.825 196 11 202 12.9
2009-12-14 14:22:38 51°18.792 2°52.726 196.1 11.1 200 12.5
2009-12-14 14:23:38 51°18.62 2°52.625 195.4 11 202 12.2
2009-12-14 14:24:38 51°18.45 2°52.515 199.4 11.1 201 11.7
2009-12-14 14:25:38 51°18.277 2°52.408 196.5 11.1 203 11.4
2009-12-14 14:26:38 51°18.105 2°52.306 197 11.2 202 11.2
2009-12-14 14:27:38 51°17.931 2°52.199 197.4 11.2 200 11.6
2009-12-14 14:28:38 51°17.754 2°52.141 185.1 11 189 11.7
2009-12-14 14:29:38 51°17.571 2°52.101 184 11.2 189 12
2009-12-14 14:30:38 51°17.386 2°52.057 184.9 11.3 189 11.5
2009-12-14 14:31:38 51°17.201 2°52.045 169.7 10.9 168 11.8
2009-12-14 14:32:38 51°17.035 2°52.161 147.6 11 147 11.5
2009-12-14 14:33:38 51°16.876 2°52.304 151.1 11.1 155 11.4
2009-12-14 14:34:38 51°16.709 2°52.425 153.8 11.1 158 11.3
2009-12-14 14:35:38 51°16.539 2°52.539 154.4 11.2 158 11.9
2009-12-14 14:36:38 51°16.368 2°52.655 151.1 11.2 155 12.3
2009-12-14 14:37:38 51°16.2 2°52.785 150.6 11.3 154 12.5
2009-12-14 14:38:38 51°16.031 2°52.91 153.1 11.2 154 12.3
2009-12-14 14:39:38 51°15.861 2°53.033 152.7 11.3 156 12
2009-12-14 14:40:38 51°15.691 2°53.154 152.5 11.2 155 11.4
2009-12-14 14:41:38 51°15.521 2°53.271 151.8 11 157 11.3
2009-12-14 14:42:38 51°15.351 2°53.39 151.5 11.2 157 10.7
2009-12-14 14:43:38 51°15.178 2°53.502 151.3 11.1 155 10.1
2009-12-14 14:44:38 51°15.029 2°53.666 135.1 11 137 10
2009-12-14 14:45:38 51°14.897 2°53.865 128.8 10.8 131 9.9
2009-12-14 14:46:38 51°14.782 2°54.089 126 11 129 10
2009-12-14 14:47:38 51°14.668 2°54.317 126.6 10.9 131 10.5
2009-12-14 14:48:38 51°14.561 2°54.546 122.5 10.7 126 10.5
2009-12-14 14:49:38 51°14.454 2°54.772 116.3 10.6 120 10.4
2009-12-14 14:50:38 51°14.36 2°55.016 119 10.9 123 9.1
2009-12-14 14:51:38 51°14.259 2°55.246 128 10 130 10.8
2009-12-14 14:52:38 51°14.137 2°55.406 147.3 9 152 10.8
2009-12-14 14:53:38 51°14.005 2°55.503 154.4 8.4 156 10.9
2009-12-14 14:54:38 51°13.906 2°55.571 154.3 6 156 11.4
2009-12-14 14:55:42 51°13.794 2°55.664 139.8 7.7 144 -999
2009-12-14 14:56:42 51°13.725 2°55.77 126.4 4.7 130 -999
2009-12-14 14:57:42 51°13.687 2°55.857 114.6 3.4 118 -999
2009-12-14 14:58:42 51°13.666 2°55.934 106.2 2.8 109 -999
2009-12-14 14:59:42 51°13.662 2°55.952 124 0.3 117 -999